Sextonville, Wisconsin
Current Conditions -  °F | °C
As of 1:56 AM on Friday 31 Oct 2014 (Local Time) from KLNR Reporting Station
Light Rain Light Rain  
Wind Chill: 32°   Ceiling: 7000
Heat Index: 41°   Visibility: 10mi
Dew Point: 24°   Wind: 20mph
Humidity: 51%   Direction: 340°NNW
Pressure: 30.16"   Gusts: 29mph
Location:  43.28°N, 90.29°W
Report Text: KLNR 310656Z AUTO 34017G25KT 10SM -RA FEW035 FEW050 OVC070 05/M04 A3016 RMK AO2 PK WND 35031/0624 RAB06 SLP213 P0000 T00501044
Loading
Personal Weather Stations






























Interactive Weather Map
Tropical Storm Tracking
New forecast layout! Learn more

10-Day Weather Forecast

Advertisements
Track Severe Weather on mobile